createdAt,value
2023-03-29T00:01:36.198Z,7.10
2023-03-29T00:04:06.349Z,9.10
2023-03-29T00:06:35.527Z,9.40
2023-03-29T00:09:06.233Z,9.40
2023-03-29T00:11:34.842Z,10.60
2023-03-29T00:14:03.645Z,11.20
2023-03-29T00:16:32.704Z,11.30
2023-03-29T00:19:01.415Z,12.30
2023-03-29T00:21:30.100Z,14.20
2023-03-29T00:23:59.962Z,13.70
2023-03-29T00:26:28.703Z,14.00
2023-03-29T00:28:57.596Z,16.30
2023-03-29T00:31:27.743Z,13.80
2023-03-29T00:33:57.221Z,13.00
2023-03-29T00:36:25.812Z,13.10
2023-03-29T00:38:56.967Z,14.20
2023-03-29T00:41:26.460Z,13.40
2023-03-29T00:44:00.678Z,10.50
2023-03-29T00:46:31.406Z,11.80
2023-03-29T00:49:12.997Z,10.00
2023-03-29T00:51:43.072Z,9.30
2023-03-29T00:54:18.930Z,8.80
2023-03-29T00:56:51.422Z,8.80
2023-03-29T00:59:24.740Z,7.90
2023-03-29T01:02:26.256Z,7.90
2023-03-29T01:05:06.865Z,7.10
2023-03-29T01:07:51.325Z,8.80
2023-03-29T01:10:32.305Z,9.40
2023-03-29T01:13:13.383Z,9.70
2023-03-29T01:15:45.568Z,10.40
2023-03-29T01:18:14.945Z,12.60
2023-03-29T01:21:21.578Z,10.40
2023-03-29T01:24:15.607Z,12.00
2023-03-29T01:27:03.039Z,14.50
2023-03-29T01:29:42.166Z,14.10
2023-03-29T01:32:45.924Z,12.70
2023-03-29T01:35:32.856Z,10.20
2023-03-29T01:38:19.914Z,11.30
2023-03-29T01:40:48.614Z,8.10
2023-03-29T01:43:52.960Z,8.40
2023-03-29T01:46:38.894Z,7.00
2023-03-29T01:49:17.224Z,7.10
2023-03-29T01:51:55.436Z,7.40
2023-03-29T01:54:48.187Z,7.20
2023-03-29T01:57:18.198Z,7.20
2023-03-29T01:59:48.526Z,7.90
2023-03-29T02:02:19.530Z,7.30
2023-03-29T02:04:54.256Z,7.40
2023-03-29T02:07:30.898Z,7.50
2023-03-29T02:09:59.979Z,6.10
2023-03-29T02:12:29.165Z,6.20
2023-03-29T02:15:07.269Z,6.80
2023-03-29T02:17:36.194Z,5.70
2023-03-29T02:20:15.193Z,6.10
2023-03-29T02:23:24.536Z,5.90
2023-03-29T02:25:55.030Z,6.70
2023-03-29T02:28:25.700Z,7.00
2023-03-29T02:31:05.055Z,6.60
2023-03-29T02:33:47.439Z,7.70
2023-03-29T02:36:24.216Z,6.60
2023-03-29T02:38:54.550Z,6.70
2023-03-29T02:41:24.277Z,6.60
2023-03-29T02:43:53.737Z,6.40
2023-03-29T02:46:23.096Z,6.40
2023-03-29T02:48:54.804Z,6.10
2023-03-29T02:51:31.087Z,5.20
2023-03-29T02:54:18.104Z,5.80
2023-03-29T02:56:55.244Z,5.80
2023-03-29T02:59:24.549Z,5.60
2023-03-29T03:01:53.943Z,5.90
2023-03-29T03:04:23.189Z,5.30
2023-03-29T03:06:52.482Z,6.30
2023-03-29T03:09:21.218Z,5.20
2023-03-29T03:11:49.862Z,6.10
2023-03-29T03:14:19.456Z,5.80
2023-03-29T03:16:48.104Z,5.20
2023-03-29T03:19:17.464Z,3.90
2023-03-29T03:21:47.386Z,5.10
2023-03-29T03:24:18.015Z,4.70
2023-03-29T03:26:46.601Z,6.60
2023-03-29T03:29:16.638Z,6.50
2023-03-29T03:32:07.094Z,7.60
2023-03-29T03:34:54.951Z,5.50
2023-03-29T03:37:26.395Z,4.70
2023-03-29T03:39:55.698Z,3.90
2023-03-29T03:42:27.454Z,4.80
2023-03-29T03:44:56.922Z,5.00
2023-03-29T03:47:46.378Z,5.30
2023-03-29T03:50:25.878Z,4.60
2023-03-29T03:52:54.560Z,5.50
2023-03-29T03:55:24.270Z,5.30
2023-03-29T03:58:13.539Z,5.00
2023-03-29T04:00:43.055Z,5.10
2023-03-29T04:03:22.137Z,5.40
2023-03-29T04:05:51.071Z,6.00
2023-03-29T04:08:22.778Z,5.70
2023-03-29T04:11:14.147Z,5.70
2023-03-29T04:13:46.520Z,5.40
2023-03-29T04:16:32.305Z,4.90
2023-03-29T04:19:09.799Z,6.30
2023-03-29T04:21:38.701Z,8.50
2023-03-29T04:24:08.429Z,8.80
2023-03-29T04:26:37.502Z,8.00
2023-03-29T04:29:17.090Z,7.70
2023-03-29T04:31:53.031Z,7.60
2023-03-29T04:34:42.169Z,7.30
2023-03-29T04:37:11.007Z,6.80
2023-03-29T04:39:40.360Z,8.30
2023-03-29T04:42:09.824Z,8.00
2023-03-29T04:44:38.709Z,10.00
2023-03-29T04:47:08.780Z,9.70
2023-03-29T04:49:38.191Z,9.80
2023-03-29T04:52:10.257Z,11.10
2023-03-29T04:54:39.374Z,11.80
2023-03-29T04:57:26.356Z,10.90
2023-03-29T05:00:15.511Z,11.00
2023-03-29T05:03:00.032Z,10.80
2023-03-29T05:05:31.793Z,9.90
2023-03-29T05:08:02.379Z,10.20
2023-03-29T05:10:54.551Z,9.30
2023-03-29T05:13:23.844Z,10.40
2023-03-29T05:15:52.953Z,8.50
2023-03-29T05:18:22.468Z,8.20
2023-03-29T05:20:53.432Z,7.10
2023-03-29T05:23:23.922Z,5.80
2023-03-29T05:26:14.388Z,7.30
2023-03-29T05:28:44.195Z,8.90
2023-03-29T05:31:16.687Z,9.00
2023-03-29T05:33:48.943Z,9.90
2023-03-29T05:36:19.697Z,14.60
2023-03-29T05:38:51.446Z,13.10
2023-03-29T05:41:21.250Z,10.40
2023-03-29T05:44:09.392Z,9.00
2023-03-29T05:46:38.494Z,8.20
2023-03-29T05:49:08.921Z,6.30
2023-03-29T05:52:00.861Z,11.80
2023-03-29T05:54:30.920Z,15.10
2023-03-29T05:56:59.699Z,17.10
2023-03-29T05:59:29.887Z,11.80
2023-03-29T06:02:00.673Z,9.80
2023-03-29T06:04:29.796Z,9.80
2023-03-29T06:07:17.857Z,13.80
2023-03-29T06:09:54.840Z,10.80
2023-03-29T06:12:25.162Z,12.20
2023-03-29T06:15:05.139Z,12.20
2023-03-29T06:17:40.238Z,10.20
2023-03-29T06:20:11.847Z,9.30
2023-03-29T06:22:42.854Z,13.00
2023-03-29T06:25:12.862Z,12.90
2023-03-29T06:27:42.296Z,13.20
2023-03-29T06:30:12.437Z,13.40
2023-03-29T06:32:43.116Z,8.90
2023-03-29T06:35:30.688Z,15.90
2023-03-29T06:38:08.455Z,8.10
2023-03-29T06:41:07.570Z,5.90
2023-03-29T06:43:55.494Z,6.20
2023-03-29T06:46:27.389Z,5.00
2023-03-29T06:48:57.986Z,4.70
2023-03-29T06:51:31.791Z,5.70
2023-03-29T06:54:01.091Z,6.60
2023-03-29T06:56:30.292Z,5.20
2023-03-29T06:59:04.916Z,5.90
2023-03-29T07:01:47.549Z,5.10
2023-03-29T07:04:25.483Z,4.90
2023-03-29T07:07:33.377Z,5.20
2023-03-29T07:10:28.749Z,6.50
2023-03-29T07:13:20.692Z,4.20
2023-03-29T07:15:50.634Z,3.50
2023-03-29T07:18:44.413Z,4.30
2023-03-29T07:21:16.751Z,3.80
2023-03-29T07:23:45.642Z,7.60
2023-03-29T07:26:14.734Z,6.70
2023-03-29T07:28:57.769Z,4.30
2023-03-29T07:31:29.733Z,5.10
2023-03-29T07:34:12.337Z,59.40
2023-03-29T07:36:41.122Z,8.00
2023-03-29T07:39:10.115Z,11.10
2023-03-29T07:41:39.113Z,5.10
2023-03-29T07:44:19.574Z,4.70
2023-03-29T07:46:48.819Z,5.30
2023-03-29T07:49:20.344Z,3.60
2023-03-29T07:51:50.346Z,3.60
2023-03-29T07:54:19.232Z,3.90
2023-03-29T07:56:54.722Z,4.00
2023-03-29T07:59:32.377Z,3.00
2023-03-29T08:02:12.124Z,3.00
2023-03-29T08:04:43.528Z,2.60
2023-03-29T08:07:35.916Z,2.90
2023-03-29T08:10:26.942Z,3.30
2023-03-29T08:13:27.778Z,2.70
2023-03-29T08:16:26.337Z,2.60
2023-03-29T08:19:02.111Z,2.50
2023-03-29T08:21:43.090Z,2.90
2023-03-29T08:24:12.112Z,3.00
2023-03-29T08:26:49.067Z,2.60
2023-03-29T08:29:19.323Z,2.50
2023-03-29T08:31:47.972Z,2.70
2023-03-29T08:34:16.905Z,5.00
2023-03-29T08:37:16.896Z,3.10
2023-03-29T08:39:48.856Z,5.90
2023-03-29T08:43:21.236Z,3.10
2023-03-29T08:46:35.300Z,2.20
2023-03-29T08:49:20.149Z,3.70
2023-03-29T08:52:20.271Z,3.20
2023-03-29T08:54:53.972Z,2.50
2023-03-29T08:58:01.201Z,2.80
2023-03-29T09:00:51.663Z,5.80
2023-03-29T09:03:28.175Z,4.40
2023-03-29T09:06:11.126Z,4.40
2023-03-29T09:08:45.237Z,3.40
2023-03-29T09:11:51.742Z,2.40
2023-03-29T09:14:45.624Z,3.00
2023-03-29T09:17:32.532Z,3.80
2023-03-29T09:20:20.275Z,2.10
2023-03-29T09:23:01.144Z,2.20
2023-03-29T09:26:08.633Z,5.30
2023-03-29T09:29:29.546Z,8.70
2023-03-29T09:31:59.917Z,2.80
2023-03-29T09:34:44.224Z,3.90
2023-03-29T09:37:32.368Z,12.50
2023-03-29T09:40:11.368Z,5.70
2023-03-29T09:43:04.360Z,8.90
2023-03-29T09:45:35.315Z,12.80
2023-03-29T09:48:17.735Z,16.60
2023-03-29T09:50:52.572Z,3.40
2023-03-29T09:53:22.151Z,2.70
2023-03-29T09:56:02.214Z,4.00
2023-03-29T09:58:52.982Z,3.30
2023-03-29T10:01:22.097Z,3.00
2023-03-29T10:03:54.510Z,26.50
2023-03-29T10:06:26.942Z,10.40
2023-03-29T10:08:59.640Z,3.80
2023-03-29T10:11:38.591Z,3.30
2023-03-29T10:14:36.426Z,3.00
2023-03-29T10:17:15.840Z,4.90
2023-03-29T10:19:51.228Z,2.70
2023-03-29T10:22:25.177Z,2.40
2023-03-29T10:24:57.490Z,2.60
2023-03-29T10:27:32.220Z,2.70
2023-03-29T10:30:09.639Z,3.80
2023-03-29T10:32:39.133Z,2.30
2023-03-29T10:35:20.304Z,2.80
2023-03-29T10:37:53.254Z,3.50
2023-03-29T10:40:32.628Z,8.30
2023-03-29T10:43:20.876Z,5.00
2023-03-29T10:46:26.516Z,2.30
2023-03-29T10:49:15.586Z,2.30
2023-03-29T10:51:50.087Z,3.40
2023-03-29T10:54:22.400Z,3.40
2023-03-29T10:57:02.207Z,3.20
2023-03-29T11:00:16.991Z,2.20
2023-03-29T11:02:53.844Z,2.60
2023-03-29T11:05:30.184Z,13.10
2023-03-29T11:08:21.044Z,4.70
2023-03-29T11:11:17.193Z,2.80
2023-03-29T11:13:59.434Z,2.90
2023-03-29T11:17:08.947Z,2.30
2023-03-29T11:19:52.562Z,2.30
2023-03-29T11:22:47.799Z,2.50
2023-03-29T11:26:00.862Z,2.40
2023-03-29T11:28:35.583Z,3.30
2023-03-29T11:31:25.241Z,22.00
2023-03-29T11:34:02.722Z,13.80
2023-03-29T11:36:36.333Z,2.70
2023-03-29T11:39:39.005Z,2.50
2023-03-29T11:42:23.866Z,1.90
2023-03-29T11:44:56.665Z,2.30
2023-03-29T11:47:33.044Z,2.40
2023-03-29T11:50:14.902Z,1.60
2023-03-29T11:53:14.203Z,3.20
2023-03-29T11:55:43.911Z,2.20
2023-03-29T11:58:27.061Z,2.40
2023-03-29T12:01:06.477Z,2.20
2023-03-29T12:04:00.587Z,2.00
2023-03-29T12:06:48.602Z,1.90
2023-03-29T12:09:45.045Z,1.80
2023-03-29T12:12:51.328Z,2.00
2023-03-29T12:15:32.157Z,2.50
2023-03-29T12:18:23.189Z,2.50
2023-03-29T12:21:02.221Z,2.20
2023-03-29T12:23:33.960Z,2.70
2023-03-29T12:26:35.225Z,2.30
2023-03-29T12:29:19.172Z,2.80
2023-03-29T12:32:21.984Z,2.30
2023-03-29T12:35:39.228Z,2.40
2023-03-29T12:38:30.970Z,2.30
2023-03-29T12:41:25.186Z,2.30
2023-03-29T12:44:16.906Z,2.60
2023-03-29T12:46:55.279Z,2.30
2023-03-29T12:49:31.965Z,2.80
2023-03-29T12:52:06.440Z,3.10
2023-03-29T12:54:34.864Z,2.10
2023-03-29T12:57:28.250Z,2.00
2023-03-29T12:59:56.874Z,2.00
2023-03-29T13:02:35.729Z,3.00
2023-03-29T13:05:25.025Z,2.40
2023-03-29T13:07:54.065Z,2.20
2023-03-29T13:10:43.230Z,2.60
2023-03-29T13:13:22.870Z,2.30
2023-03-29T13:15:51.807Z,2.20
2023-03-29T13:18:34.905Z,1.80
2023-03-29T13:21:23.338Z,2.20
2023-03-29T13:23:54.899Z,2.10
2023-03-29T13:27:16.113Z,2.50
2023-03-29T13:29:53.719Z,2.80
2023-03-29T13:33:08.814Z,2.20
2023-03-29T13:36:08.994Z,1.60
2023-03-29T13:38:54.632Z,1.70
2023-03-29T13:41:48.682Z,2.40
2023-03-29T13:44:44.705Z,2.20
2023-03-29T13:47:19.275Z,1.90
2023-03-29T13:49:55.135Z,2.10
2023-03-29T13:52:36.873Z,1.50
2023-03-29T13:55:27.295Z,1.70
2023-03-29T13:58:45.069Z,1.60
2023-03-29T14:01:35.783Z,2.50
2023-03-29T14:04:07.374Z,2.50
2023-03-29T14:06:38.850Z,2.70
2023-03-29T14:09:09.399Z,2.80
2023-03-29T14:11:38.450Z,2.50
2023-03-29T14:14:08.613Z,2.10
2023-03-29T14:16:40.319Z,2.90
2023-03-29T14:19:36.702Z,2.40
2023-03-29T14:22:15.175Z,3.90
2023-03-29T14:24:52.745Z,1.80
2023-03-29T14:27:22.480Z,1.60
2023-03-29T14:29:53.479Z,1.40
2023-03-29T14:32:31.090Z,1.50
2023-03-29T14:35:01.389Z,1.30
2023-03-29T14:37:30.414Z,2.30
2023-03-29T14:39:59.762Z,2.10
2023-03-29T14:42:29.769Z,2.50
2023-03-29T14:45:04.465Z,2.10
2023-03-29T14:47:34.191Z,1.90
2023-03-29T14:50:04.363Z,1.50
2023-03-29T14:52:34.984Z,1.60
2023-03-29T14:55:04.453Z,1.80
2023-03-29T14:57:36.716Z,1.70
2023-03-29T15:00:38.899Z,1.70
2023-03-29T15:03:15.476Z,1.90
2023-03-29T15:05:52.619Z,1.60
2023-03-29T15:08:36.289Z,1.60
2023-03-29T15:11:24.354Z,2.10
2023-03-29T15:14:05.965Z,1.40
2023-03-29T15:16:40.877Z,1.40
2023-03-29T15:19:22.472Z,1.60
2023-03-29T15:21:52.168Z,1.30
2023-03-29T15:24:32.538Z,1.60
2023-03-29T15:27:14.796Z,1.60
2023-03-29T15:29:46.980Z,1.30
2023-03-29T15:32:25.004Z,1.50
2023-03-29T15:35:02.329Z,2.20
2023-03-29T15:37:31.693Z,2.00
2023-03-29T15:40:00.892Z,2.00
2023-03-29T15:42:29.577Z,1.20
2023-03-29T15:44:58.378Z,2.50
2023-03-29T15:47:28.340Z,1.80
2023-03-29T15:49:57.275Z,1.90
2023-03-29T15:52:26.083Z,1.60
2023-03-29T15:54:54.852Z,1.70
2023-03-29T15:57:23.908Z,1.20
2023-03-29T15:59:52.843Z,0.90
2023-03-29T16:02:24.534Z,2.10
2023-03-29T16:04:53.809Z,1.60
2023-03-29T16:07:23.098Z,1.40
2023-03-29T16:09:51.995Z,1.20
2023-03-29T16:12:20.884Z,11.30
2023-03-29T16:14:50.121Z,7.80
2023-03-29T16:17:18.970Z,6.40
2023-03-29T16:19:47.558Z,4.10
2023-03-29T16:22:16.552Z,19.10
2023-03-29T16:24:45.239Z,6.40
2023-03-29T16:27:14.130Z,4.10
2023-03-29T16:29:42.817Z,15.40
2023-03-29T16:32:11.768Z,10.90
2023-03-29T16:37:09.902Z,23.50
2023-03-29T16:39:38.898Z,22.20
2023-03-29T16:42:12.301Z,9.30
2023-03-29T16:44:41.158Z,6.70
2023-03-29T16:47:12.479Z,8.50
2023-03-29T16:49:42.413Z,15.20
2023-03-29T16:52:13.514Z,8.60
2023-03-29T16:54:42.858Z,5.70
2023-03-29T16:57:11.520Z,4.50
2023-03-29T16:59:42.110Z,3.30
2023-03-29T17:02:11.003Z,3.10
2023-03-29T17:04:39.683Z,2.50
2023-03-29T17:07:08.680Z,2.60
2023-03-29T17:09:37.829Z,2.40
2023-03-29T17:12:07.408Z,2.50
2023-03-29T17:14:36.192Z,2.60
2023-03-29T17:17:05.374Z,3.10
2023-03-29T17:19:34.300Z,3.60
2023-03-29T17:22:02.957Z,8.50
2023-03-29T17:24:32.024Z,46.10
2023-03-29T17:27:00.940Z,55.60
2023-03-29T17:29:29.888Z,43.50
2023-03-29T17:31:58.632Z,17.30
2023-03-29T17:34:29.261Z,12.00
2023-03-29T17:36:58.069Z,9.70
2023-03-29T17:39:27.426Z,4.70
2023-03-29T17:41:56.867Z,2.90
2023-03-29T17:44:26.159Z,4.00
2023-03-29T17:46:54.978Z,5.40
2023-03-29T17:49:23.630Z,3.50
2023-03-29T17:51:52.325Z,3.30
2023-03-29T17:54:21.226Z,3.30
2023-03-29T17:56:50.794Z,2.90
2023-03-29T17:59:19.733Z,4.10
2023-03-29T18:01:48.435Z,3.70
2023-03-29T18:04:17.531Z,4.10
2023-03-29T18:06:46.710Z,4.90
2023-03-29T18:09:15.641Z,4.80
2023-03-29T18:11:44.378Z,5.00
2023-03-29T18:14:12.990Z,5.80
2023-03-29T18:16:42.202Z,6.00
2023-03-29T18:19:11.253Z,5.40
2023-03-29T18:21:40.246Z,4.40
2023-03-29T18:24:08.937Z,3.50
2023-03-29T18:26:37.824Z,14.70
2023-03-29T18:29:09.176Z,5.00
2023-03-29T18:31:38.805Z,4.50
2023-03-29T18:34:07.708Z,3.70
2023-03-29T18:36:37.391Z,3.90
2023-03-29T18:39:06.145Z,5.50
2023-03-29T18:41:37.580Z,3.80
2023-03-29T18:44:08.068Z,5.80
2023-03-29T18:46:37.001Z,5.20
2023-03-29T18:49:07.958Z,8.70
2023-03-29T18:51:36.473Z,16.40
2023-03-29T18:54:06.557Z,14.50
2023-03-29T18:56:35.797Z,9.60
2023-03-29T18:59:06.652Z,13.30
2023-03-29T19:01:36.318Z,6.60
2023-03-29T19:04:05.952Z,12.50
2023-03-29T19:06:34.843Z,16.50
2023-03-29T19:09:05.413Z,10.10
2023-03-29T19:11:36.203Z,6.00
2023-03-29T19:14:08.454Z,7.70
2023-03-29T19:16:37.067Z,6.30
2023-03-29T19:19:06.980Z,5.80
2023-03-29T19:21:35.772Z,5.00
2023-03-29T19:24:05.753Z,5.00
2023-03-29T19:26:34.376Z,5.00
2023-03-29T19:29:03.591Z,5.00
2023-03-29T19:31:33.847Z,5.40
2023-03-29T19:34:02.589Z,5.20
2023-03-29T19:36:31.270Z,6.10
2023-03-29T19:38:59.856Z,6.80
2023-03-29T19:41:29.054Z,4.70
2023-03-29T19:43:57.634Z,6.40
2023-03-29T19:46:28.530Z,5.60
2023-03-29T19:48:59.621Z,6.30
2023-03-29T19:51:28.628Z,5.40
2023-03-29T19:53:57.994Z,6.10
2023-03-29T19:56:28.179Z,5.40
2023-03-29T19:58:57.025Z,5.60
2023-03-29T20:01:27.493Z,5.20
2023-03-29T20:03:56.425Z,5.50
2023-03-29T20:06:25.436Z,5.70
2023-03-29T20:08:54.201Z,6.20
2023-03-29T20:11:24.450Z,6.40
2023-03-29T20:13:53.245Z,6.70
2023-03-29T20:16:24.650Z,6.10
2023-03-29T20:18:54.310Z,6.70
2023-03-29T20:21:22.884Z,7.00
2023-03-29T20:23:51.660Z,7.60
2023-03-29T20:26:20.260Z,7.70
2023-03-29T20:28:48.944Z,6.80
2023-03-29T20:31:17.685Z,6.40
2023-03-29T20:33:46.422Z,6.90
2023-03-29T20:36:18.833Z,8.20
2023-03-29T20:38:47.479Z,6.10
2023-03-29T20:41:16.600Z,7.10
2023-03-29T20:43:46.445Z,6.70
2023-03-29T20:46:18.555Z,6.90
2023-03-29T20:48:53.486Z,7.30
2023-03-29T20:51:30.499Z,13.50
2023-03-29T20:54:05.328Z,12.80
2023-03-29T20:56:40.248Z,7.80
2023-03-29T20:59:11.006Z,10.00
2023-03-29T21:01:42.779Z,11.00
2023-03-29T21:04:11.469Z,7.10
2023-03-29T21:06:40.009Z,8.00
2023-03-29T21:09:08.821Z,8.10
2023-03-29T21:11:37.724Z,9.10
2023-03-29T21:14:06.269Z,8.20
2023-03-29T21:16:35.543Z,7.70
2023-03-29T21:19:04.065Z,7.40
2023-03-29T21:21:33.971Z,7.00
2023-03-29T21:24:04.860Z,8.00
2023-03-29T21:26:34.515Z,8.10
2023-03-29T21:29:04.317Z,7.70
2023-03-29T21:31:33.524Z,8.00
2023-03-29T21:34:02.985Z,11.90
2023-03-29T21:36:32.447Z,10.40
2023-03-29T21:39:01.344Z,9.20
2023-03-29T21:41:30.901Z,9.10
2023-03-29T21:43:59.930Z,9.10
2023-03-29T21:46:29.363Z,8.10
2023-03-29T21:48:59.429Z,9.60
2023-03-29T21:51:28.140Z,8.10
2023-03-29T21:53:56.940Z,8.40
2023-03-29T21:56:26.744Z,7.90
2023-03-29T21:58:55.946Z,12.40
2023-03-29T22:01:24.792Z,9.40
2023-03-29T22:03:55.959Z,8.10
2023-03-29T22:06:26.306Z,7.40
2023-03-29T22:08:55.325Z,7.60
2023-03-29T22:11:26.045Z,7.10
2023-03-29T22:13:55.544Z,7.80
2023-03-29T22:16:26.096Z,7.70
2023-03-29T22:18:54.864Z,9.80
2023-03-29T22:21:27.369Z,8.60
2023-03-29T22:23:57.939Z,7.50
2023-03-29T22:26:31.426Z,8.20
2023-03-29T22:29:01.785Z,8.40
2023-03-29T22:31:31.651Z,7.60
2023-03-29T22:34:02.958Z,9.10
2023-03-29T22:36:32.565Z,7.00
2023-03-29T22:39:01.266Z,10.60
2023-03-29T22:41:29.834Z,10.90
2023-03-29T22:44:01.287Z,8.00
2023-03-29T22:46:30.223Z,8.20
2023-03-29T22:48:59.238Z,6.70
2023-03-29T22:51:27.960Z,7.50
2023-03-29T22:53:56.548Z,7.60
2023-03-29T22:56:25.747Z,7.20
2023-03-29T22:58:54.495Z,7.30
2023-03-29T23:01:23.048Z,8.00
2023-03-29T23:03:52.041Z,7.40
2023-03-29T23:06:20.797Z,7.60
2023-03-29T23:08:49.587Z,7.50
2023-03-29T23:11:18.174Z,8.00
2023-03-29T23:13:49.072Z,7.90
2023-03-29T23:16:21.009Z,8.00
2023-03-29T23:18:49.860Z,7.80
2023-03-29T23:21:18.652Z,7.80
2023-03-29T23:23:47.240Z,8.70
2023-03-29T23:26:16.240Z,8.70
2023-03-29T23:28:45.183Z,9.80
2023-03-29T23:31:18.688Z,8.70
2023-03-29T23:33:47.521Z,10.30
2023-03-29T23:36:18.941Z,8.20
2023-03-29T23:38:49.087Z,8.10
2023-03-29T23:41:18.186Z,9.70
2023-03-29T23:43:47.655Z,8.50
2023-03-29T23:46:19.062Z,8.90
2023-03-29T23:48:50.530Z,7.40
2023-03-29T23:51:23.416Z,7.90
2023-03-29T23:53:52.190Z,7.90
2023-03-29T23:56:21.740Z,8.40
2023-03-29T23:58:50.540Z,11.60
